Saturday, December 16, 2017, 5:56 AM EST
Back to Local

KWRI, Mcguire Air Force Base

Location: Trenton, NJ, United States Lat: 40.017
Local Time: 5:56 AM EST (10:56 GMT) Lon: -74.6
Time Zone: US/Eastern Elev: 134 ft

Show me the last for .
Show Decoded

2017-12-16 04:56 METAR KWRI 160956Z AUTO 23008KT 10SM CLR M05/M09 A3000 RMK AO2 SLP161 T10461087
                 $ =
2017-12-16 03:56 METAR KWRI 160856Z AUTO 26008KT 10SM CLR M06/M08 A2999 RMK AO2 SLP157 T10601081
                 52019 $ =
2017-12-16 02:56 METAR KWRI 160756Z AUTO 24006KT 10SM CLR M07/M09 A2997 RMK AO2 SLP151 T10751087
                 $ =
2017-12-16 01:56 METAR KWRI 160656Z 24007KT 10SM CLR M08/M09 A2995 RMK AO2A SLP144 T10761088 $ =
2017-12-16 00:56 METAR KWRI 160556Z 24006KT 8SM CLR M08/M09 A2993 RMK AO2A SLP137 60016 T10801092
                 11050 21086 55001 $ =
2017-12-15 23:56 METAR KWRI 160456Z 23007KT 9SM CLR M08/M09 A2992 RMK AO2A SLP133 T10821094
                 410341086 $ =
2017-12-15 22:56 METAR KWRI 160356Z 22005KT 6SM BR CLR M08/M09 A2992 RMK AO2A VIS 1 1/4 RWY24
                 SLP134 T10801092 $ =
2017-12-15 22:14 METAR KWRI 160314Z 24004KT 9SM CLR M07/M08 A2993 RMK VIS 1 1/8 RWY06/24 VIS 1
                 3/8 RWY24 SLP138 $ =
2017-12-15 21:56 METAR KWRI 160256Z 26003KT 9SM CLR M07/M08 A2993 RMK AO2A SLP138 60016 T10691080
                 52013 $ =
2017-12-15 21:14 METAR KWRI 160214Z 27004KT 10SM FEW007 M07/M08 A2993 RMK AO2A SLP135 $ =
2017-12-15 20:56 METAR KWRI 160156Z 27004KT 10SM SCT070 M06/M07 A2992 RMK AO2A SLP133 T10601074 $
                 =
2017-12-15 19:56 METAR KWRI 160056Z COR 28003KT 10SM OVC048 M05/M06 A2991 RMK AO2A SNE09 SLPNO
                 P0000 T10501064 $ COR 0100 =
2017-12-15 19:09 METAR KWRI 160009Z AUTO 34003KT 10SM OVC050 M05/M06 A2989 RMK AO2 SNE09 SLPNO $
                 =
2017-12-15 18:59 METAR KWRI 152359Z AUTO 33003KT 10SM -SN FEW004 SCT022 OVC055 M05/M06 A2989 RMK
                 AO2 SLPNO $ =
2017-12-15 18:56 METAR KWRI 152356Z 33003KT 10SM -SN SCT022 OVC055 M05/M06 A2989 RMK AO2A SLPNO
                 P0004 60016 4/002 T10521063 11034 21052 $ =
2017-12-15 18:32 METAR KWRI 152332Z 00000KT 3SM -SN BR BKN022 OVC045 M05/M06 A2990 RMK AO2A SLPNO
                 $ =
2017-12-15 18:15 METAR KWRI 152315Z 00000KT 2SM R06/5000FT -SN BR OVC019 M05/M06 A2990 RMK AO2A
                 VIS 1 1/2V2 SLPNO $ =
2017-12-15 18:11 METAR KWRI 152311Z 00000KT 1 3/4SM R06/4500FT -SN BR OVC017 M05/M06 A2990 RMK
                 AO2A CIG 012V017 SLPNO $ =
2017-12-15 18:06 METAR KWRI 152306Z 03003KT 1 1/2SM R06/4000FT -SN BR OVC012 M05/M06 A2989 RMK
                 AO2A SLPNO $ =
2017-12-15 18:01 METAR KWRI 152301Z 00000KT 1 3/8SM R06/4000FT -SN BR OVC012 M05/M06 A2990 RMK
                 AO2A SLPNO $ =
2017-12-15 17:56 METAR KWRI 152256Z 00000KT 1 5/8SM R06/4000FT -SN BR OVC014 M05/M06 A2990 RMK
                 AO2A SLPNO P0003 T10511062 $ =
2017-12-15 17:41 METAR KWRI 152241Z 00000KT 1 3/4SM R06/4500FT -SN BR OVC012 M05/M06 A2990 RMK
                 AO2A SLPNO $ =
2017-12-15 17:36 METAR KWRI 152236Z 00000KT 1 1/2SM R06/4000FT -SN BR OVC012 M05/M06 A2990 RMK
                 AO2A SLPNO $ =
2017-12-15 17:31 METAR KWRI 152231Z 00000KT 1 1/2SM R06/4000FT -SN BR OVC012 M05/M06 A2990 RMK
                 AO2A SLPNO $ =
2017-12-15 17:21 METAR KWRI 152221Z 36003KT 1 3/4SM R06/4500FT -SN BR OVC011 M05/M06 A2990 RMK
                 AO2A VIS 1 1/8 RWY06/24 VIS 1 RWY24 SLPNO $ =
2017-12-15 17:06 METAR KWRI 152206Z 34003KT 1 1/2SM R06/4000FT -SN BR OVC009 M05/M06 A2991 RMK
                 AO2A SLPNO $ =
2017-12-15 16:56 METAR KWRI 152156Z 34003KT 1 3/4SM R06/4500FT -SN BR OVC010 M05/M06 A2991 RMK
                 AO2A VIS 1V1 3/4 VIS 1 1/8 RWY18 SLPNO P0005 T10491060 $ =
2017-12-15 16:52 METAR KWRI 152152Z 33003KT 1 1/2SM R06/5000FT -SN BR OVC010 M05/M06 A2991 RMK
                 AO2A VIS 1V1 1/2 VIS 7/8 RWY18 SLPNO $ =
2017-12-15 16:47 METAR KWRI 152147Z AUTO 32003KT 1SM R06/4500VP6000FT -SN BR VV010 M05/M06 A2991
                 RMK AO2 VIS 1/2 RWY18 CIG 001 RWY18 SLPNO $ =
2017-12-15 16:37 METAR KWRI 152137Z AUTO 32004KT 1 1/4SM -SN BR OVC009 M05/M06 A2991 RMK AO2 VIS
                 3/4V1 1/4 VIS 5/8 RWY18 CIG 007V009 CIG 001 RWY18 SLPNO $ =
2017-12-15 16:32 METAR KWRI 152132Z AUTO 32004KT 7/8SM R06/3500VP6000FT -SN BR VV007 M05/M06
                 A2991 RMK AO2 CIG 001 RWY18 SLPNO $ =
2017-12-15 16:27 METAR KWRI 152127Z AUTO 31005KT 3/4SM R06/3000V5500FT -SN BR VV007 M05/M06 A2991
                 RMK AO2 CIG 001 RWY18 SLPNO $ =
2017-12-15 16:17 METAR KWRI 152117Z 29004KT 5/8SM R06/2800V4000FT SN BR VV007 M05/M06 A2992 RMK
                 AO2A CIG 006 RWY18 CIG 006 RWY24 SLPNO $ =
2017-12-15 16:12 METAR KWRI 152112Z 30003KT 1/2SM R06/2000V4000FT SN VV006 M05/M06 A2991 RMK AO2A
                 SLPNO $ =
2017-12-15 16:01 METAR KWRI 152101Z 00000KT 1/4SM R06/1600V1800FT +SN VV006 M05/M06 A2991 RMK
                 AO2A CIG 006V008 SLP130 $ =
2017-12-15 15:56 METAR KWRI 152056Z 00000KT 1/4SM R06/1600V2000FT +SN VV007 M05/M06 A2991 RMK
                 AO2A SLP130 P0004 60004 T10501064 55016 $ =
2017-12-15 15:45 METAR KWRI 152045Z 00000KT 3/8SM R06/2000V2600FT SN VV008 M05/M06 A2991 RMK AO2A
                 SLP130 $ =
2017-12-15 15:30 METAR KWRI 152030Z 00000KT 5/8SM R06/3500V4000FT -SN BR VV009 M05/M07 A2991 RMK
                 AO2A SLP130 $ =
2017-12-15 15:20 METAR KWRI 152020Z 00000KT 5/8SM R06/3500V4500FT -SN BR VV010 M05/M07 A2991 RMK
                 AO2A VIS 5/8V1 1/8 CIG 010V017 SLP130 $ =
2017-12-15 15:14 METAR KWRI 152014Z 00000KT 7/8SM R06/4000VP6000FT -SN BR VV014 M05/M07 A2990 RMK
                 AO2A TWR VIS 1/2 VIS 7/8V1 7/8 SLP127 $ =
2017-12-15 15:08 METAR KWRI 152008Z 00000KT 1 3/8SM -SN BR OVC017 M05/M07 A2990 RMK AO2A VIS 1
                 3/8V3 VIS 3/4 RWY06/24 VIS 7/8 RWY24 SLPNO $ =
2017-12-15 15:01 METAR KWRI 152001Z 33003KT 2 1/2SM -SN OVC019 M05/M07 A2990 RMK AO2A TWR VIS 1
                 VIS 2 1/2V6 VIS 1 5/8 RWY06/24 VIS 1 5/8 RWY24 CIG 019V023 CIG 018 RWY18 SLPNO $
                 =
2017-12-15 14:56 METAR KWRI 151956Z 35004KT 4SM -SN OVC021 M05/M07 A2990 RMK AO2A TWR VIS 1 SLPNO
                 P0000 T10461075 $ =
2017-12-15 14:42 METAR KWRI 151942Z 35004KT 9SM -SN OVC025 M04/M08 A2990 RMK TWR VIS 1 CIG 024
                 RWY18 SLPNO $ =
2017-12-15 14:16 METAR KWRI 151916Z AUTO 34007KT 10SM -SN FEW024 BKN029 OVC038 M04/M10 A2991 RMK
                 AO2 SLPNO $ =
2017-12-15 13:56 METAR KWRI 151856Z AUTO 35005KT 9SM -SN BKN039 BKN050 M03/M11 A2992 RMK AO2
                 SNB37 SLPNO P0000 T10351110 $ =
2017-12-15 13:15 METAR KWRI 151815Z AUTO 01005KT 10SM -SN OVC060 M04/M12 A2994 RMK AO2 SNB15
                 PRESFR SLP140 $ =
2017-12-15 12:56 METAR KWRI 151756Z AUTO 36004KT 10SM BKN060 M04/M12 A2996 RMK AO2 SLP147
                 T10361118 11035 21070 57044 $ =
2017-12-15 11:56 METAR KWRI 151656Z AUTO 00000KT 10SM OVC055 M04/M12 A3001 RMK AO2 SLP164
                 T10371121 $ =
2017-12-15 10:56 METAR KWRI 151556Z AUTO 00000KT 10SM FEW047 OVC065 M04/M12 A3006 RMK AO2 SLP181
                 T10391121 $ =
2017-12-15 09:56 METAR KWRI 151456Z AUTO 00000KT 10SM SCT070 BKN085 OVC150 M04/M12 A3009 RMK AO2
                 SLP191 T10431118 56002 $ =
2017-12-15 08:56 METAR KWRI 151356Z AUTO 00000KT 10SM FEW140 M05/M12 A3009 RMK AO2 SLP191
                 T10491121 $ =
2017-12-15 07:56 METAR KWRI 151256Z AUTO 00000KT 10SM FEW130 SCT160 SCT180 M06/M11 A3009 RMK AO2
                 SLP191 T10641110 $ =
2017-12-15 06:56 METAR KWRI 151156Z AUTO 00000KT 10SM FEW140 SCT160 BKN180 M07/M11 A3010 RMK AO2
                 SLP195 T10691106 11063 21082 53000 $ =

Support USWX by starting your Amazon purchase here.